sensor_id;sensor_type;location;lat;lon;timestamp;pressure;altitude;pressure_sealevel;temperature;humidity
61524;BME280;47393;38.758;-9.164;2022-08-03T00:01:44;100261.47;;;17.83;97.87
61524;BME280;47393;38.758;-9.164;2022-08-03T00:03:44;100259.78;;;17.81;98.28
61524;BME280;47393;38.758;-9.164;2022-08-03T00:05:45;100256.97;;;17.83;98.37
61524;BME280;47393;38.758;-9.164;2022-08-03T00:07:46;100251.31;;;17.78;98.66
61524;BME280;47393;38.758;-9.164;2022-08-03T00:09:46;100257.66;;;17.77;98.56
61524;BME280;47393;38.758;-9.164;2022-08-03T00:11:47;100248.03;;;17.76;98.96
61524;BME280;47393;38.758;-9.164;2022-08-03T00:13:48;100246.53;;;17.73;98.81
61524;BME280;47393;38.758;-9.164;2022-08-03T00:15:49;100249.56;;;17.62;99.17
61524;BME280;47393;38.758;-9.164;2022-08-03T00:17:50;100244.97;;;17.56;99.98
61524;BME280;47393;38.758;-9.164;2022-08-03T00:19:50;100240.09;;;17.59;100.00
61524;BME280;47393;38.758;-9.164;2022-08-03T00:21:51;100242.47;;;17.54;100.00
61524;BME280;47393;38.758;-9.164;2022-08-03T00:23:52;100239.13;;;17.60;100.00
61524;BME280;47393;38.758;-9.164;2022-08-03T00:25:52;100237.16;;;17.54;100.00
61524;BME280;47393;38.758;-9.164;2022-08-03T00:27:56;100238.84;;;17.47;100.00
61524;BME280;47393;38.758;-9.164;2022-08-03T00:29:56;100235.53;;;17.45;100.00
61524;BME280;47393;38.758;-9.164;2022-08-03T00:31:57;100231.69;;;17.47;100.00
61524;BME280;47393;38.758;-9.164;2022-08-03T00:33:58;100231.72;;;17.39;100.00
61524;BME280;47393;38.758;-9.164;2022-08-03T00:35:58;100226.91;;;17.43;100.00
61524;BME280;47393;38.758;-9.164;2022-08-03T00:37:59;100225.03;;;17.52;100.00
61524;BME280;47393;38.758;-9.164;2022-08-03T00:40:00;100220.38;;;17.54;100.00
61524;BME280;47393;38.758;-9.164;2022-08-03T00:42:02;100226.00;;;17.59;100.00
61524;BME280;47393;38.758;-9.164;2022-08-03T00:44:03;100213.63;;;17.74;99.56
61524;BME280;47393;38.758;-9.164;2022-08-03T00:46:03;100221.72;;;17.81;98.41
61524;BME280;47393;38.758;-9.164;2022-08-03T00:48:04;100208.94;;;17.76;98.97
61524;BME280;47393;38.758;-9.164;2022-08-03T00:50:05;100211.94;;;17.73;98.94
61524;BME280;47393;38.758;-9.164;2022-08-03T00:52:09;100200.50;;;17.73;99.61
61524;BME280;47393;38.758;-9.164;2022-08-03T00:54:10;100207.53;;;17.66;99.98
61524;BME280;47393;38.758;-9.164;2022-08-03T00:56:16;100217.47;;;17.63;100.00
61524;BME280;47393;38.758;-9.164;2022-08-03T00:58:17;100210.22;;;17.57;100.00
61524;BME280;47393;38.758;-9.164;2022-08-03T01:00:20;100212.63;;;17.44;100.00
61524;BME280;47393;38.758;-9.164;2022-08-03T01:02:21;100196.16;;;17.40;100.00
61524;BME280;47393;38.758;-9.164;2022-08-03T01:04:21;100211.31;;;17.40;100.00
61524;BME280;47393;38.758;-9.164;2022-08-03T01:06:29;100204.16;;;17.40;100.00
61524;BME280;47393;38.758;-9.164;2022-08-03T01:14:43;100186.34;;;17.09;100.00
61524;BME280;47393;38.758;-9.164;2022-08-03T01:21:02;100195.84;;;17.04;100.00
61524;BME280;47393;38.758;-9.164;2022-08-03T01:27:18;100192.97;;;17.45;100.00
61524;BME280;47393;38.758;-9.164;2022-08-03T01:32:01;100187.97;;;17.50;100.00
61524;BME280;47393;38.758;-9.164;2022-08-03T01:34:03;100192.97;;;17.45;100.00
61524;BME280;47393;38.758;-9.164;2022-08-03T01:36:06;100194.00;;;17.44;100.00
61524;BME280;47393;38.758;-9.164;2022-08-03T01:38:10;100193.34;;;17.42;100.00
61524;BME280;47393;38.758;-9.164;2022-08-03T01:40:13;100193.72;;;17.30;100.00
61524;BME280;47393;38.758;-9.164;2022-08-03T01:42:14;100200.72;;;17.23;100.00
61524;BME280;47393;38.758;-9.164;2022-08-03T01:44:16;100191.00;;;17.07;100.00
61524;BME280;47393;38.758;-9.164;2022-08-03T01:46:17;100193.47;;;17.09;100.00
61524;BME280;47393;38.758;-9.164;2022-08-03T01:48:19;100196.13;;;17.09;100.00
61524;BME280;47393;38.758;-9.164;2022-08-03T01:50:24;100200.81;;;17.07;100.00
61524;BME280;47393;38.758;-9.164;2022-08-03T01:52:26;100189.66;;;17.11;100.00
61524;BME280;47393;38.758;-9.164;2022-08-03T01:54:28;100191.78;;;17.16;100.00
61524;BME280;47393;38.758;-9.164;2022-08-03T01:56:29;100190.16;;;17.07;100.00
61524;BME280;47393;38.758;-9.164;2022-08-03T01:58:31;100186.66;;;17.06;100.00
61524;BME280;47393;38.758;-9.164;2022-08-03T02:00:34;100190.53;;;17.04;100.00
61524;BME280;47393;38.758;-9.164;2022-08-03T02:02:35;100198.00;;;17.00;100.00
61524;BME280;47393;38.758;-9.164;2022-08-03T02:04:37;100191.50;;;17.03;100.00
61524;BME280;47393;38.758;-9.164;2022-08-03T02:06:38;100187.00;;;17.11;100.00
61524;BME280;47393;38.758;-9.164;2022-08-03T02:08:41;100190.59;;;17.27;100.00
61524;BME280;47393;38.758;-9.164;2022-08-03T02:10:42;100189.75;;;17.26;100.00
61524;BME280;47393;38.758;-9.164;2022-08-03T02:12:44;100193.78;;;17.22;100.00
61524;BME280;47393;38.758;-9.164;2022-08-03T02:14:45;100196.88;;;17.34;100.00
61524;BME280;47393;38.758;-9.164;2022-08-03T02:16:48;100193.44;;;17.25;100.00
61524;BME280;47393;38.758;-9.164;2022-08-03T02:18:48;100196.25;;;17.24;100.00
61524;BME280;47393;38.758;-9.164;2022-08-03T02:20:50;100201.88;;;17.29;100.00
61524;BME280;47393;38.758;-9.164;2022-08-03T02:22:51;100202.75;;;17.21;100.00
61524;BME280;47393;38.758;-9.164;2022-08-03T02:24:52;100201.56;;;17.24;100.00
61524;BME280;47393;38.758;-9.164;2022-08-03T02:26:53;100194.78;;;17.21;100.00
61524;BME280;47393;38.758;-9.164;2022-08-03T02:28:55;100201.75;;;17.22;100.00
61524;BME280;47393;38.758;-9.164;2022-08-03T02:30:57;100199.72;;;17.24;100.00
61524;BME280;47393;38.758;-9.164;2022-08-03T02:33:02;100198.41;;;17.20;100.00
61524;BME280;47393;38.758;-9.164;2022-08-03T02:35:04;100193.44;;;17.17;100.00
61524;BME280;47393;38.758;-9.164;2022-08-03T02:37:06;100197.78;;;17.10;100.00
61524;BME280;47393;38.758;-9.164;2022-08-03T02:39:10;100191.84;;;17.08;100.00
61524;BME280;47393;38.758;-9.164;2022-08-03T02:41:14;100194.63;;;17.15;100.00
61524;BME280;47393;38.758;-9.164;2022-08-03T02:43:16;100187.78;;;17.20;100.00
61524;BME280;47393;38.758;-9.164;2022-08-03T02:45:19;100199.09;;;17.22;100.00
61524;BME280;47393;38.758;-9.164;2022-08-03T02:47:20;100194.44;;;17.16;100.00
61524;BME280;47393;38.758;-9.164;2022-08-03T02:49:21;100192.63;;;17.17;100.00
61524;BME280;47393;38.758;-9.164;2022-08-03T02:51:23;100191.78;;;17.16;100.00
61524;BME280;47393;38.758;-9.164;2022-08-03T02:53:27;100195.13;;;17.18;100.00
61524;BME280;47393;38.758;-9.164;2022-08-03T02:55:28;100194.59;;;17.23;100.00
61524;BME280;47393;38.758;-9.164;2022-08-03T02:57:30;100204.59;;;17.21;100.00
61524;BME280;47393;38.758;-9.164;2022-08-03T02:59:33;100192.72;;;17.32;100.00
61524;BME280;47393;38.758;-9.164;2022-08-03T03:01:34;100196.19;;;17.32;100.00
61524;BME280;47393;38.758;-9.164;2022-08-03T03:03:35;100189.13;;;17.16;100.00
61524;BME280;47393;38.758;-9.164;2022-08-03T03:05:37;100195.28;;;17.17;100.00
61524;BME280;47393;38.758;-9.164;2022-08-03T03:07:39;100189.81;;;17.18;100.00
61524;BME280;47393;38.758;-9.164;2022-08-03T03:09:41;100190.78;;;17.17;100.00
61524;BME280;47393;38.758;-9.164;2022-08-03T03:11:42;100193.44;;;17.17;100.00
61524;BME280;47393;38.758;-9.164;2022-08-03T03:13:43;100199.94;;;17.15;100.00
61524;BME280;47393;38.758;-9.164;2022-08-03T03:15:44;100199.13;;;17.14;100.00
61524;BME280;47393;38.758;-9.164;2022-08-03T03:17:47;100191.75;;;17.24;100.00
61524;BME280;47393;38.758;-9.164;2022-08-03T03:19:49;100198.06;;;17.23;100.00
61524;BME280;47393;38.758;-9.164;2022-08-03T03:21:50;100203.22;;;17.25;100.00
61524;BME280;47393;38.758;-9.164;2022-08-03T03:23:51;100205.53;;;17.28;100.00
61524;BME280;47393;38.758;-9.164;2022-08-03T03:25:52;100195.94;;;17.19;100.00
61524;BME280;47393;38.758;-9.164;2022-08-03T03:27:57;100196.91;;;17.26;100.00
61524;BME280;47393;38.758;-9.164;2022-08-03T03:29:58;100198.38;;;17.28;100.00
61524;BME280;47393;38.758;-9.164;2022-08-03T03:31:59;100199.88;;;17.31;100.00
61524;BME280;47393;38.758;-9.164;2022-08-03T03:34:00;100196.56;;;17.29;100.00
61524;BME280;47393;38.758;-9.164;2022-08-03T03:36:01;100201.06;;;17.20;100.00
61524;BME280;47393;38.758;-9.164;2022-08-03T03:38:02;100199.41;;;17.19;100.00
61524;BME280;47393;38.758;-9.164;2022-08-03T03:40:02;100195.41;;;17.23;100.00
61524;BME280;47393;38.758;-9.164;2022-08-03T03:42:03;100201.69;;;17.30;100.00
61524;BME280;47393;38.758;-9.164;2022-08-03T03:44:04;100201.66;;;17.39;100.00
61524;BME280;47393;38.758;-9.164;2022-08-03T03:46:05;100194.81;;;17.44;100.00
61524;BME280;47393;38.758;-9.164;2022-08-03T03:48:06;100191.63;;;17.49;100.00
61524;BME280;47393;38.758;-9.164;2022-08-03T03:50:07;100198.75;;;17.57;100.00
61524;BME280;47393;38.758;-9.164;2022-08-03T03:52:09;100197.72;;;17.58;100.00
61524;BME280;47393;38.758;-9.164;2022-08-03T03:54:09;100191.91;;;17.62;100.00
61524;BME280;47393;38.758;-9.164;2022-08-03T03:56:10;100207.91;;;17.54;100.00
61524;BME280;47393;38.758;-9.164;2022-08-03T03:58:11;100200.94;;;17.53;100.00
61524;BME280;47393;38.758;-9.164;2022-08-03T04:00:12;100200.97;;;17.45;100.00
61524;BME280;47393;38.758;-9.164;2022-08-03T04:02:13;100205.97;;;17.48;100.00
61524;BME280;47393;38.758;-9.164;2022-08-03T04:04:13;100194.97;;;17.51;100.00
61524;BME280;47393;38.758;-9.164;2022-08-03T04:06:33;100198.78;;;17.49;100.00
61524;BME280;47393;38.758;-9.164;2022-08-03T04:08:52;100199.63;;;17.49;100.00
61524;BME280;47393;38.758;-9.164;2022-08-03T04:11:12;100194.91;;;17.59;100.00
61524;BME280;47393;38.758;-9.164;2022-08-03T04:13:14;100196.56;;;17.60;100.00
61524;BME280;47393;38.758;-9.164;2022-08-03T04:15:17;100193.09;;;17.60;100.00
61524;BME280;47393;38.758;-9.164;2022-08-03T04:17:20;100198.53;;;17.67;100.00
61524;BME280;47393;38.758;-9.164;2022-08-03T04:19:27;100193.88;;;17.69;100.00
61524;BME280;47393;38.758;-9.164;2022-08-03T04:21:30;100192.50;;;17.73;100.00
61524;BME280;47393;38.758;-9.164;2022-08-03T04:23:33;100187.47;;;17.78;100.00
61524;BME280;47393;38.758;-9.164;2022-08-03T04:25:34;100193.47;;;17.80;100.00
61524;BME280;47393;38.758;-9.164;2022-08-03T04:27:37;100200.78;;;17.78;100.00
61524;BME280;47393;38.758;-9.164;2022-08-03T04:29:40;100201.09;;;17.83;100.00
61524;BME280;47393;38.758;-9.164;2022-08-03T04:31:43;100206.72;;;17.88;100.00
61524;BME280;47393;38.758;-9.164;2022-08-03T04:33:45;100200.03;;;17.92;100.00
61524;BME280;47393;38.758;-9.164;2022-08-03T04:35:46;100207.34;;;17.98;100.00
61524;BME280;47393;38.758;-9.164;2022-08-03T04:37:48;100204.97;;;18.04;100.00
61524;BME280;47393;38.758;-9.164;2022-08-03T04:39:50;100201.66;;;18.02;100.00
61524;BME280;47393;38.758;-9.164;2022-08-03T04:41:58;100205.81;;;18.04;100.00
61524;BME280;47393;38.758;-9.164;2022-08-03T04:44:01;100206.44;;;18.06;100.00
61524;BME280;47393;38.758;-9.164;2022-08-03T04:46:04;100215.28;;;18.07;100.00
61524;BME280;47393;38.758;-9.164;2022-08-03T04:48:05;100207.94;;;18.09;100.00
61524;BME280;47393;38.758;-9.164;2022-08-03T04:50:06;100211.22;;;18.11;100.00
61524;BME280;47393;38.758;-9.164;2022-08-03T04:52:08;100213.25;;;18.09;100.00
61524;BME280;47393;38.758;-9.164;2022-08-03T04:54:12;100211.59;;;18.08;100.00
61524;BME280;47393;38.758;-9.164;2022-08-03T04:56:13;100215.72;;;18.10;100.00
61524;BME280;47393;38.758;-9.164;2022-08-03T04:58:14;100221.19;;;18.17;100.00
61524;BME280;47393;38.758;-9.164;2022-08-03T05:00:14;100223.66;;;18.19;100.00
61524;BME280;47393;38.758;-9.164;2022-08-03T05:02:15;100215.50;;;18.20;100.00
61524;BME280;47393;38.758;-9.164;2022-08-03T05:04:16;100219.81;;;18.21;100.00
61524;BME280;47393;38.758;-9.164;2022-08-03T05:06:16;100221.47;;;18.22;100.00
61524;BME280;47393;38.758;-9.164;2022-08-03T05:08:17;100226.41;;;18.25;100.00
61524;BME280;47393;38.758;-9.164;2022-08-03T05:10:18;100225.25;;;18.28;100.00
61524;BME280;47393;38.758;-9.164;2022-08-03T05:12:18;100224.41;;;18.27;100.00
61524;BME280;47393;38.758;-9.164;2022-08-03T05:14:19;100220.75;;;18.28;100.00
61524;BME280;47393;38.758;-9.164;2022-08-03T05:16:20;100226.28;;;18.27;100.00
61524;BME280;47393;38.758;-9.164;2022-08-03T05:18:20;100229.94;;;18.26;100.00
61524;BME280;47393;38.758;-9.164;2022-08-03T05:20:21;100227.28;;;18.26;100.00
61524;BME280;47393;38.758;-9.164;2022-08-03T05:22:22;100225.78;;;18.23;100.00
61524;BME280;47393;38.758;-9.164;2022-08-03T05:24:22;100238.91;;;18.25;100.00
61524;BME280;47393;38.758;-9.164;2022-08-03T05:26:23;100233.59;;;18.25;100.00
61524;BME280;47393;38.758;-9.164;2022-08-03T05:28:24;100238.72;;;18.26;100.00
61524;BME280;47393;38.758;-9.164;2022-08-03T05:30:24;100235.06;;;18.27;100.00
61524;BME280;47393;38.758;-9.164;2022-08-03T05:32:25;100234.06;;;18.28;100.00
61524;BME280;47393;38.758;-9.164;2022-08-03T05:34:26;100235.72;;;18.29;100.00
61524;BME280;47393;38.758;-9.164;2022-08-03T05:36:27;100237.72;;;18.27;100.00
61524;BME280;47393;38.758;-9.164;2022-08-03T05:38:27;100236.91;;;18.27;100.00
61524;BME280;47393;38.758;-9.164;2022-08-03T05:40:28;100240.41;;;18.27;100.00
61524;BME280;47393;38.758;-9.164;2022-08-03T05:42:29;100236.84;;;18.35;100.00
61524;BME280;47393;38.758;-9.164;2022-08-03T05:44:29;100251.16;;;18.34;100.00
61524;BME280;47393;38.758;-9.164;2022-08-03T05:46:30;100248.16;;;18.37;100.00
61524;BME280;47393;38.758;-9.164;2022-08-03T05:48:31;100240.44;;;18.42;100.00
61524;BME280;47393;38.758;-9.164;2022-08-03T05:50:31;100241.97;;;18.37;100.00
61524;BME280;47393;38.758;-9.164;2022-08-03T05:52:32;100242.63;;;18.39;100.00
61524;BME280;47393;38.758;-9.164;2022-08-03T05:54:33;100247.59;;;18.42;100.00
61524;BME280;47393;38.758;-9.164;2022-08-03T05:56:33;100239.44;;;18.43;100.00
61524;BME280;47393;38.758;-9.164;2022-08-03T05:58:34;100243.03;;;18.50;100.00
61524;BME280;47393;38.758;-9.164;2022-08-03T06:00:34;100245.50;;;18.52;100.00
61524;BME280;47393;38.758;-9.164;2022-08-03T06:02:35;100242.50;;;18.55;100.00
61524;BME280;47393;38.758;-9.164;2022-08-03T06:04:38;100246.25;;;18.61;100.00
61524;BME280;47393;38.758;-9.164;2022-08-03T06:06:39;100243.25;;;18.64;100.00
61524;BME280;47393;38.758;-9.164;2022-08-03T06:08:40;100239.56;;;18.65;100.00
61524;BME280;47393;38.758;-9.164;2022-08-03T06:10:41;100246.00;;;18.71;100.00
61524;BME280;47393;38.758;-9.164;2022-08-03T06:12:42;100246.69;;;18.73;100.00
61524;BME280;47393;38.758;-9.164;2022-08-03T06:14:42;100254.13;;;18.77;100.00
61524;BME280;47393;38.758;-9.164;2022-08-03T06:16:43;100254.13;;;18.77;100.00
61524;BME280;47393;38.758;-9.164;2022-08-03T06:18:44;100250.91;;;18.82;100.00
61524;BME280;47393;38.758;-9.164;2022-08-03T06:20:44;100257.19;;;18.89;100.00
61524;BME280;47393;38.758;-9.164;2022-08-03T06:22:48;100259.22;;;18.87;100.00
61524;BME280;47393;38.758;-9.164;2022-08-03T06:24:49;100266.19;;;18.88;100.00
61524;BME280;47393;38.758;-9.164;2022-08-03T06:26:50;100273.13;;;18.97;99.85
61524;BME280;47393;38.758;-9.164;2022-08-03T06:28:50;100264.75;;;19.00;99.82
61524;BME280;47393;38.758;-9.164;2022-08-03T06:30:51;100265.03;;;19.06;99.19
61524;BME280;47393;38.758;-9.164;2022-08-03T06:32:52;100271.81;;;19.08;98.73
61524;BME280;47393;38.758;-9.164;2022-08-03T06:34:52;100277.44;;;19.13;98.68
61524;BME280;47393;38.758;-9.164;2022-08-03T06:36:56;100257.75;;;18.99;98.91
61524;BME280;47393;38.758;-9.164;2022-08-03T06:38:57;100281.22;;;19.19;98.93
61524;BME280;47393;38.758;-9.164;2022-08-03T06:40:57;100284.91;;;19.33;97.35
61524;BME280;47393;38.758;-9.164;2022-08-03T06:42:59;100281.94;;;19.28;97.53
61524;BME280;47393;38.758;-9.164;2022-08-03T06:45:00;100287.38;;;19.34;97.53
61524;BME280;47393;38.758;-9.164;2022-08-03T06:47:01;100282.88;;;19.35;97.43
61524;BME280;47393;38.758;-9.164;2022-08-03T06:49:01;100296.19;;;19.50;95.70
61524;BME280;47393;38.758;-9.164;2022-08-03T06:51:02;100296.84;;;19.52;95.63
61524;BME280;47393;38.758;-9.164;2022-08-03T06:53:02;100297.00;;;19.65;94.28
61524;BME280;47393;38.758;-9.164;2022-08-03T06:55:04;100299.56;;;19.74;93.87
61524;BME280;47393;38.758;-9.164;2022-08-03T06:57:05;100288.81;;;19.82;93.38
61524;BME280;47393;38.758;-9.164;2022-08-03T06:59:05;100309.16;;;19.83;92.17
61524;BME280;47393;38.758;-9.164;2022-08-03T07:01:06;100298.56;;;19.75;92.59
61524;BME280;47393;38.758;-9.164;2022-08-03T07:03:06;100304.09;;;19.73;93.06
61524;BME280;47393;38.758;-9.164;2022-08-03T07:05:08;100298.84;;;19.80;93.04
61524;BME280;47393;38.758;-9.164;2022-08-03T07:07:09;100304.56;;;19.92;91.35
61524;BME280;47393;38.758;-9.164;2022-08-03T07:09:10;100311.09;;;19.89;91.56
61524;BME280;47393;38.758;-9.164;2022-08-03T07:11:10;100308.59;;;19.87;91.06
61524;BME280;47393;38.758;-9.164;2022-08-03T07:13:11;100306.69;;;20.03;90.37
61524;BME280;47393;38.758;-9.164;2022-08-03T07:15:12;100299.56;;;20.25;89.57
61524;BME280;47393;38.758;-9.164;2022-08-03T07:17:13;100311.06;;;20.26;88.80
61524;BME280;47393;38.758;-9.164;2022-08-03T07:19:13;100304.78;;;20.12;89.14
61524;BME280;47393;38.758;-9.164;2022-08-03T07:21:14;100312.44;;;20.21;89.09
61524;BME280;47393;38.758;-9.164;2022-08-03T07:23:15;100309.84;;;20.28;89.33
61524;BME280;47393;38.758;-9.164;2022-08-03T07:25:15;100304.22;;;20.38;87.79
61524;BME280;47393;38.758;-9.164;2022-08-03T07:27:16;100305.72;;;20.47;87.31
61524;BME280;47393;38.758;-9.164;2022-08-03T07:29:17;100304.78;;;20.55;86.79
61524;BME280;47393;38.758;-9.164;2022-08-03T07:31:17;100304.47;;;20.65;86.62
61524;BME280;47393;38.758;-9.164;2022-08-03T07:33:19;100303.22;;;20.89;84.72
61524;BME280;47393;38.758;-9.164;2022-08-03T07:35:20;100312.28;;;20.88;84.83
61524;BME280;47393;38.758;-9.164;2022-08-03T07:37:20;100308.91;;;22.66;77.20
61524;BME280;47393;38.758;-9.164;2022-08-03T07:39:21;100305.69;;;23.63;71.36
61524;BME280;47393;38.758;-9.164;2022-08-03T07:41:22;100314.19;;;23.60;70.45
61524;BME280;47393;38.758;-9.164;2022-08-03T07:43:23;100317.69;;;23.54;70.72
61524;BME280;47393;38.758;-9.164;2022-08-03T07:45:23;100316.91;;;25.38;64.03
61524;BME280;47393;38.758;-9.164;2022-08-03T07:47:26;100326.63;;;25.14;62.87
61524;BME280;47393;38.758;-9.164;2022-08-03T07:49:27;100325.72;;;25.45;62.12
61524;BME280;47393;38.758;-9.164;2022-08-03T07:51:28;100324.63;;;24.59;64.91
61524;BME280;47393;38.758;-9.164;2022-08-03T07:53:28;100330.63;;;25.30;63.01
61524;BME280;47393;38.758;-9.164;2022-08-03T07:55:29;100335.66;;;24.12;65.88
61524;BME280;47393;38.758;-9.164;2022-08-03T07:57:30;100333.88;;;23.27;70.15
61524;BME280;47393;38.758;-9.164;2022-08-03T07:59:30;100333.88;;;23.20;70.25
61524;BME280;47393;38.758;-9.164;2022-08-03T08:01:49;100334.31;;;23.82;68.43
61524;BME280;47393;38.758;-9.164;2022-08-03T08:03:50;100342.94;;;26.12;60.63
61524;BME280;47393;38.758;-9.164;2022-08-03T08:05:50;100340.44;;;27.66;54.64
61524;BME280;47393;38.758;-9.164;2022-08-03T08:07:51;100345.75;;;27.01;55.35
61524;BME280;47393;38.758;-9.164;2022-08-03T08:09:52;100351.03;;;26.84;55.53
61524;BME280;47393;38.758;-9.164;2022-08-03T08:11:53;100349.78;;;25.77;59.18
61524;BME280;47393;38.758;-9.164;2022-08-03T08:13:53;100351.00;;;25.63;60.23
61524;BME280;47393;38.758;-9.164;2022-08-03T08:15:54;100354.22;;;27.17;55.23
61524;BME280;47393;38.758;-9.164;2022-08-03T08:17:56;100349.34;;;28.53;51.46
61524;BME280;47393;38.758;-9.164;2022-08-03T08:19:56;100357.31;;;28.13;51.70
61524;BME280;47393;38.758;-9.164;2022-08-03T08:21:57;100348.09;;;27.57;53.08
61524;BME280;47393;38.758;-9.164;2022-08-03T08:23:58;100342.94;;;27.20;54.43
61524;BME280;47393;38.758;-9.164;2022-08-03T08:25:59;100346.66;;;26.83;55.01
61524;BME280;47393;38.758;-9.164;2022-08-03T08:28:00;100348.69;;;27.11;54.97
61524;BME280;47393;38.758;-9.164;2022-08-03T08:30:03;100345.28;;;28.50;51.04
61524;BME280;47393;38.758;-9.164;2022-08-03T08:32:03;100349.50;;;29.48;48.58
61524;BME280;47393;38.758;-9.164;2022-08-03T08:34:04;100348.06;;;30.12;45.50
61524;BME280;47393;38.758;-9.164;2022-08-03T08:36:05;100351.94;;;29.10;48.09
61524;BME280;47393;38.758;-9.164;2022-08-03T08:38:06;100340.22;;;28.71;48.74
61524;BME280;47393;38.758;-9.164;2022-08-03T08:40:07;100343.06;;;29.32;47.55
61524;BME280;47393;38.758;-9.164;2022-08-03T08:42:09;100341.91;;;30.44;45.40
61524;BME280;47393;38.758;-9.164;2022-08-03T08:44:10;100337.59;;;31.86;42.11
61524;BME280;47393;38.758;-9.164;2022-08-03T08:46:11;100344.09;;;31.17;43.28
61524;BME280;47393;38.758;-9.164;2022-08-03T08:48:12;100352.78;;;31.14;42.51
61524;BME280;47393;38.758;-9.164;2022-08-03T08:50:17;100356.94;;;30.57;43.80
61524;BME280;47393;38.758;-9.164;2022-08-03T08:52:18;100355.94;;;31.48;42.18
61524;BME280;47393;38.758;-9.164;2022-08-03T08:54:22;100355.69;;;32.85;39.33
61524;BME280;47393;38.758;-9.164;2022-08-03T08:56:24;100356.25;;;32.36;39.27
61524;BME280;47393;38.758;-9.164;2022-08-03T08:58:25;100356.06;;;31.21;42.19
61524;BME280;47393;38.758;-9.164;2022-08-03T09:00:28;100353.28;;;31.11;42.21
61524;BME280;47393;38.758;-9.164;2022-08-03T09:02:29;100352.56;;;31.89;40.74
61524;BME280;47393;38.758;-9.164;2022-08-03T09:04:30;100363.09;;;31.60;40.94
61524;BME280;47393;38.758;-9.164;2022-08-03T09:06:31;100357.50;;;31.97;40.89
61524;BME280;47393;38.758;-9.164;2022-08-03T09:08:32;100366.31;;;33.07;38.33
61524;BME280;47393;38.758;-9.164;2022-08-03T09:10:33;100362.53;;;32.72;38.78
61524;BME280;47393;38.758;-9.164;2022-08-03T09:12:37;100361.25;;;30.03;44.10
61524;BME280;47393;38.758;-9.164;2022-08-03T09:14:38;100362.84;;;31.23;41.78
61524;BME280;47393;38.758;-9.164;2022-08-03T09:16:54;100354.53;;;33.38;38.21
61524;BME280;47393;38.758;-9.164;2022-08-03T09:18:55;100363.72;;;34.12;36.45
61524;BME280;47393;38.758;-9.164;2022-08-03T09:21:23;100367.06;;;36.57;32.76
61524;BME280;47393;38.758;-9.164;2022-08-03T09:23:23;100371.75;;;35.80;32.70
61524;BME280;47393;38.758;-9.164;2022-08-03T09:27:28;100369.03;;;37.03;31.22
61524;BME280;47393;38.758;-9.164;2022-08-03T09:29:31;100374.00;;;36.68;31.83
61524;BME280;47393;38.758;-9.164;2022-08-03T09:31:39;100367.97;;;34.34;35.24
61524;BME280;47393;38.758;-9.164;2022-08-03T09:33:46;100363.72;;;31.87;39.42
61524;BME280;47393;38.758;-9.164;2022-08-03T09:35:47;100365.63;;;31.29;41.40
61524;BME280;47393;38.758;-9.164;2022-08-03T09:37:54;100360.72;;;33.59;36.80
61524;BME280;47393;38.758;-9.164;2022-08-03T09:40:08;100355.38;;;33.18;37.72
61524;BME280;47393;38.758;-9.164;2022-08-03T09:42:13;100358.16;;;34.33;35.66
61524;BME280;47393;38.758;-9.164;2022-08-03T09:44:14;100355.31;;;33.49;37.01
61524;BME280;47393;38.758;-9.164;2022-08-03T09:46:15;100360.53;;;34.79;34.15
61524;BME280;47393;38.758;-9.164;2022-08-03T09:48:25;100362.69;;;35.36;33.48
61524;BME280;47393;38.758;-9.164;2022-08-03T09:50:26;100356.66;;;34.86;33.16
61524;BME280;47393;38.758;-9.164;2022-08-03T09:52:31;100358.97;;;35.27;33.36
61524;BME280;47393;38.758;-9.164;2022-08-03T09:54:32;100349.69;;;32.88;38.00
61524;BME280;47393;38.758;-9.164;2022-08-03T09:58:45;100364.09;;;33.20;37.62
61524;BME280;47393;38.758;-9.164;2022-08-03T10:00:56;100350.28;;;34.26;35.76
61524;BME280;47393;38.758;-9.164;2022-08-03T10:03:02;100369.47;;;35.14;34.06
61524;BME280;47393;38.758;-9.164;2022-08-03T10:05:03;100357.59;;;35.29;33.05
61524;BME280;47393;38.758;-9.164;2022-08-03T10:07:05;100360.13;;;34.62;35.27
61524;BME280;47393;38.758;-9.164;2022-08-03T10:09:08;100366.19;;;35.42;33.84
61524;BME280;47393;38.758;-9.164;2022-08-03T10:11:09;100362.38;;;34.10;35.26
61524;BME280;47393;38.758;-9.164;2022-08-03T10:13:12;100370.13;;;33.11;36.99
61524;BME280;47393;38.758;-9.164;2022-08-03T10:15:13;100366.25;;;34.04;35.60
61524;BME280;47393;38.758;-9.164;2022-08-03T10:17:14;100374.13;;;34.85;34.47
61524;BME280;47393;38.758;-9.164;2022-08-03T10:19:14;100364.06;;;35.58;32.45
61524;BME280;47393;38.758;-9.164;2022-08-03T10:21:16;100373.97;;;34.36;34.50
61524;BME280;47393;38.758;-9.164;2022-08-03T10:23:19;100371.41;;;33.50;36.73
61524;BME280;47393;38.758;-9.164;2022-08-03T10:25:20;100363.75;;;33.47;36.69
61524;BME280;47393;38.758;-9.164;2022-08-03T10:27:22;100360.28;;;34.41;34.78
61524;BME280;47393;38.758;-9.164;2022-08-03T10:29:23;100366.69;;;33.66;36.25
61524;BME280;47393;38.758;-9.164;2022-08-03T10:31:23;100369.94;;;35.70;33.29
61524;BME280;47393;38.758;-9.164;2022-08-03T10:33:28;100364.66;;;36.69;31.99
61524;BME280;47393;38.758;-9.164;2022-08-03T10:35:31;100370.75;;;35.71;33.25
61524;BME280;47393;38.758;-9.164;2022-08-03T10:37:33;100372.88;;;35.98;32.48
61524;BME280;47393;38.758;-9.164;2022-08-03T10:39:36;100372.88;;;35.98;33.05
61524;BME280;47393;38.758;-9.164;2022-08-03T10:41:39;100367.53;;;34.91;34.12
61524;BME280;47393;38.758;-9.164;2022-08-03T10:43:49;100372.81;;;35.60;32.89
61524;BME280;47393;38.758;-9.164;2022-08-03T10:45:50;100365.25;;;33.89;36.05
61524;BME280;47393;38.758;-9.164;2022-08-03T10:47:51;100369.03;;;32.51;38.45